createdAt,value
2017-11-01T00:02:21.098Z,9.63
2017-11-01T00:04:48.535Z,8.77
2017-11-01T00:07:15.946Z,9.60
2017-11-01T00:09:43.358Z,11.70
2017-11-01T00:12:11.538Z,9.47
2017-11-01T00:14:39.714Z,10.80
2017-11-01T00:17:07.129Z,8.80
2017-11-01T00:19:34.533Z,10.77
2017-11-01T00:22:01.954Z,13.50
2017-11-01T00:24:29.359Z,8.60
2017-11-01T00:26:56.774Z,10.40
2017-11-01T00:29:24.946Z,6.40
2017-11-01T00:31:53.125Z,10.80
2017-11-01T00:34:21.301Z,8.57
2017-11-01T00:36:48.701Z,6.97
2017-11-01T00:39:16.107Z,6.17
2017-11-01T00:41:43.521Z,5.87
2017-11-01T00:44:10.922Z,12.30
2017-11-01T00:46:39.113Z,8.70
2017-11-01T00:49:06.522Z,15.70
2017-11-01T00:51:33.932Z,10.47
2017-11-01T00:54:01.337Z,7.67
2017-11-01T00:56:28.740Z,7.03
2017-11-01T00:58:56.166Z,6.63
2017-11-01T01:01:23.564Z,7.97
2017-11-01T01:03:51.627Z,6.30
2017-11-01T01:06:19.777Z,8.73
2017-11-01T01:08:47.954Z,8.30
2017-11-01T01:11:16.135Z,8.53
2017-11-01T01:13:45.294Z,9.93
2017-11-01T01:16:12.706Z,8.83
2017-11-01T01:18:40.114Z,7.47
2017-11-01T01:21:07.528Z,6.87
2017-11-01T01:23:34.943Z,6.93
2017-11-01T01:26:03.118Z,6.67
2017-11-01T01:28:31.306Z,8.40
2017-11-01T01:30:59.477Z,8.47
2017-11-01T01:33:27.661Z,7.50
2017-11-01T01:35:55.832Z,5.93
2017-11-01T01:38:24.011Z,6.00
2017-11-01T01:40:51.415Z,11.40
2017-11-01T01:43:18.834Z,7.10
2017-11-01T01:45:46.244Z,6.23
2017-11-01T01:48:13.646Z,9.30
2017-11-01T01:50:41.055Z,7.50
2017-11-01T01:53:08.461Z,7.37
2017-11-01T01:55:35.865Z,11.23
2017-11-01T01:58:03.268Z,7.30
2017-11-01T02:00:30.674Z,6.60
2017-11-01T02:02:58.085Z,6.60
2017-11-01T02:05:25.490Z,6.37
2017-11-01T02:07:52.896Z,7.77
2017-11-01T02:10:20.302Z,8.60
2017-11-01T02:12:47.712Z,5.37
2017-11-01T02:15:15.113Z,8.83
2017-11-01T02:17:42.518Z,5.53
2017-11-01T02:20:09.933Z,6.57
2017-11-01T02:22:37.338Z,9.03
2017-11-01T02:25:04.742Z,6.43
2017-11-01T02:27:32.909Z,9.20
2017-11-01T02:30:00.331Z,9.13
2017-11-01T02:32:27.734Z,8.13
2017-11-01T02:34:55.914Z,8.60
2017-11-01T02:37:24.086Z,7.37
2017-11-01T02:39:52.269Z,10.60
2017-11-01T02:42:19.674Z,4.90
2017-11-01T02:44:47.090Z,5.77
2017-11-01T02:47:14.499Z,7.37
2017-11-01T02:49:41.912Z,5.30
2017-11-01T02:52:09.314Z,7.33
2017-11-01T02:54:36.732Z,7.10
2017-11-01T02:57:04.128Z,5.20
2017-11-01T02:59:31.544Z,5.93
2017-11-01T03:02:00.905Z,6.73
2017-11-01T03:04:29.089Z,5.53
2017-11-01T03:06:57.277Z,5.30
2017-11-01T03:09:24.673Z,3.97
2017-11-01T03:11:52.082Z,6.73
2017-11-01T03:14:19.492Z,4.00
2017-11-01T03:16:46.898Z,5.30
2017-11-01T03:19:14.302Z,6.30
2017-11-01T03:21:41.713Z,3.97
2017-11-01T03:24:09.118Z,5.30
2017-11-01T03:26:36.529Z,6.50
2017-11-01T03:29:03.946Z,6.90
2017-11-01T03:31:31.351Z,4.03
2017-11-01T03:33:58.762Z,4.93
2017-11-01T03:36:26.933Z,7.47
2017-11-01T03:38:55.103Z,7.20
2017-11-01T03:41:22.518Z,5.33
2017-11-01T03:43:49.927Z,6.87
2017-11-01T03:46:18.117Z,6.00
2017-11-01T03:48:45.518Z,3.37
2017-11-01T03:51:12.922Z,3.60
2017-11-01T03:53:41.093Z,5.80
2017-11-01T03:56:09.267Z,4.50
2017-11-01T03:58:37.441Z,7.80
2017-11-01T04:01:05.622Z,4.13
2017-11-01T04:03:33.401Z,4.80
2017-11-01T04:06:00.806Z,4.43
2017-11-01T04:08:28.214Z,6.77
2017-11-01T04:10:55.622Z,5.10
2017-11-01T04:13:23.038Z,5.03
2017-11-01T04:15:50.434Z,6.23
2017-11-01T04:18:20.787Z,5.90
2017-11-01T04:20:48.957Z,5.97
2017-11-01T04:23:17.134Z,6.53
2017-11-01T04:25:45.301Z,6.20
2017-11-01T04:28:13.485Z,6.27
2017-11-01T04:30:40.883Z,5.13
2017-11-01T04:33:08.292Z,4.13
2017-11-01T04:35:35.698Z,4.13
2017-11-01T04:38:03.102Z,3.10
2017-11-01T04:40:31.283Z,3.73
2017-11-01T04:42:58.711Z,3.07
2017-11-01T04:45:26.122Z,4.13
2017-11-01T04:47:53.527Z,4.40
2017-11-01T04:50:21.706Z,3.93
2017-11-01T04:52:49.878Z,3.70
2017-11-01T04:55:18.050Z,5.00
2017-11-01T04:57:46.226Z,10.30
2017-11-01T05:00:19.258Z,6.53
2017-11-01T05:02:46.670Z,6.10
2017-11-01T05:05:15.771Z,5.33
2017-11-01T05:07:43.937Z,7.30
2017-11-01T05:10:15.965Z,6.27
2017-11-01T05:12:44.260Z,5.73
2017-11-01T05:15:13.443Z,11.37
2017-11-01T05:17:42.487Z,5.17
2017-11-01T05:20:09.924Z,7.53
2017-11-01T05:22:38.090Z,7.20
2017-11-01T05:25:07.437Z,7.80
2017-11-01T05:27:34.849Z,8.63
2017-11-01T05:30:02.257Z,8.40
2017-11-01T05:32:29.670Z,6.50
2017-11-01T05:34:57.093Z,4.33
2017-11-01T05:37:24.494Z,7.80
2017-11-01T05:39:52.667Z,4.77
2017-11-01T05:42:20.846Z,8.67
2017-11-01T05:44:48.257Z,6.60
2017-11-01T05:47:15.669Z,9.13
2017-11-01T05:49:43.081Z,15.13
2017-11-01T05:52:10.491Z,5.80
2017-11-01T05:54:37.893Z,8.40
2017-11-01T05:57:05.303Z,7.83
2017-11-01T05:59:32.701Z,7.17
2017-11-01T06:02:00.114Z,6.03
2017-11-01T06:04:27.519Z,6.17
2017-11-01T06:06:54.932Z,6.53
2017-11-01T06:09:22.337Z,7.67
2017-11-01T06:11:49.737Z,8.47
2017-11-01T06:14:17.146Z,6.70
2017-11-01T06:16:44.553Z,6.30
2017-11-01T06:19:11.981Z,12.77
2017-11-01T06:21:40.146Z,8.13
2017-11-01T06:24:08.334Z,4.50
2017-11-01T06:26:35.726Z,8.03
2017-11-01T06:29:03.137Z,9.53
2017-11-01T06:31:30.542Z,6.73
2017-11-01T06:33:57.967Z,10.43
2017-11-01T06:36:25.370Z,5.70
2017-11-01T06:38:52.779Z,9.63
2017-11-01T06:41:20.990Z,6.97
2017-11-01T06:43:48.402Z,5.50
2017-11-01T06:46:15.801Z,6.80
2017-11-01T06:48:43.213Z,6.83
2017-11-01T06:51:10.622Z,10.97
2017-11-01T06:53:38.022Z,3.93
2017-11-01T06:56:05.437Z,8.73
2017-11-01T06:58:32.853Z,6.50
2017-11-01T07:01:00.266Z,9.33
2017-11-01T07:03:28.429Z,8.73
2017-11-01T07:05:55.842Z,8.70
2017-11-01T07:08:29.883Z,6.97
2017-11-01T07:10:57.298Z,7.07
2017-11-01T07:13:24.702Z,4.93
2017-11-01T07:15:52.130Z,4.90
2017-11-01T07:18:19.543Z,4.57
2017-11-01T07:20:47.718Z,6.73
2017-11-01T07:23:15.898Z,7.37
2017-11-01T07:25:43.305Z,12.53
2017-11-01T07:28:10.713Z,4.40
2017-11-01T07:30:38.124Z,5.37
2017-11-01T07:33:06.309Z,5.93
2017-11-01T07:35:33.729Z,6.43
2017-11-01T07:38:01.139Z,4.83
2017-11-01T07:40:29.336Z,7.70
2017-11-01T07:42:56.743Z,6.50
2017-11-01T07:45:24.169Z,10.13
2017-11-01T07:47:51.578Z,6.53
2017-11-01T07:50:19.752Z,15.20
2017-11-01T07:52:47.926Z,8.10
2017-11-01T07:55:16.107Z,11.07
2017-11-01T07:57:44.294Z,8.73
2017-11-01T08:00:11.702Z,5.37
2017-11-01T08:02:39.106Z,5.10
2017-11-01T08:05:06.509Z,5.87
2017-11-01T08:07:33.918Z,5.03
2017-11-01T08:10:01.331Z,7.87
2017-11-01T08:12:28.742Z,5.57
2017-11-01T08:14:56.155Z,4.30
2017-11-01T08:17:23.569Z,5.87
2017-11-01T08:19:50.980Z,5.63
2017-11-01T08:22:19.166Z,4.73
2017-11-01T08:24:46.569Z,9.37
2017-11-01T08:27:13.981Z,5.60
2017-11-01T08:29:41.396Z,9.13
2017-11-01T08:32:08.800Z,5.63
2017-11-01T08:34:36.209Z,7.80
2017-11-01T08:37:03.645Z,4.60
2017-11-01T08:39:31.050Z,6.20
2017-11-01T08:41:59.239Z,5.50
2017-11-01T08:44:26.664Z,5.47
2017-11-01T08:46:54.061Z,5.70
2017-11-01T08:49:21.478Z,6.00
2017-11-01T08:51:49.653Z,6.30
2017-11-01T08:54:17.850Z,7.53
2017-11-01T08:56:45.257Z,3.63
2017-11-01T08:59:12.676Z,5.40
2017-11-01T09:01:40.077Z,4.40
2017-11-01T09:04:07.505Z,6.10
2017-11-01T09:06:34.922Z,5.20
2017-11-01T09:09:03.104Z,3.50
2017-11-01T09:11:31.278Z,5.60
2017-11-01T09:13:58.688Z,3.97
2017-11-01T09:16:26.114Z,4.13
2017-11-01T09:18:53.513Z,5.70
2017-11-01T09:21:20.933Z,2.73
2017-11-01T09:23:48.342Z,3.27
2017-11-01T09:26:16.521Z,3.07
2017-11-01T09:28:44.697Z,7.27
2017-11-01T09:31:12.113Z,4.50
2017-11-01T09:33:39.525Z,3.30
2017-11-01T09:36:06.938Z,6.27
2017-11-01T09:38:34.351Z,5.23
2017-11-01T09:41:01.761Z,4.30
2017-11-01T09:43:29.945Z,4.47
2017-11-01T09:45:58.146Z,5.00
2017-11-01T09:48:25.557Z,6.10
2017-11-01T09:50:52.962Z,3.73
2017-11-01T09:53:20.374Z,6.10
2017-11-01T09:55:48.549Z,4.07
2017-11-01T09:58:16.729Z,5.13
2017-11-01T10:00:44.907Z,10.30
2017-11-01T10:03:13.091Z,3.70
2017-11-01T10:05:40.502Z,3.03
2017-11-01T10:08:07.913Z,7.00
2017-11-01T10:10:35.326Z,6.47
2017-11-01T10:13:02.749Z,7.10
2017-11-01T10:15:30.163Z,6.03
2017-11-01T10:17:58.342Z,5.00
2017-11-01T10:20:26.517Z,5.03
2017-11-01T10:22:53.932Z,3.30
2017-11-01T10:25:21.338Z,4.00
2017-11-01T10:27:48.746Z,5.50
2017-11-01T10:30:16.161Z,2.73
2017-11-01T10:32:43.578Z,5.90
2017-11-01T10:35:11.769Z,4.83
2017-11-01T10:37:39.954Z,4.87
2017-11-01T10:40:07.366Z,5.93
2017-11-01T10:42:35.546Z,4.77
2017-11-01T10:45:02.966Z,3.63
2017-11-01T10:47:30.375Z,4.90
2017-11-01T10:49:58.553Z,3.13
2017-11-01T10:52:26.738Z,5.00
2017-11-01T10:54:54.162Z,3.50
2017-11-01T10:57:21.565Z,3.80
2017-11-01T10:59:48.993Z,4.57
2017-11-01T11:02:17.166Z,3.10
2017-11-01T11:04:45.353Z,3.50
2017-11-01T11:07:12.766Z,6.47
2017-11-01T11:09:40.185Z,4.53
2017-11-01T11:12:07.605Z,2.70
2017-11-01T11:14:35.009Z,5.60
2017-11-01T11:17:02.423Z,5.30
2017-11-01T11:19:30.602Z,5.83
2017-11-01T11:21:58.016Z,2.47
2017-11-01T11:24:25.441Z,2.57
2017-11-01T11:26:52.844Z,2.83
2017-11-01T11:29:20.256Z,7.53
2017-11-01T11:31:47.675Z,2.90
2017-11-01T11:34:15.849Z,4.50
2017-11-01T11:36:44.034Z,4.27
2017-11-01T11:39:12.205Z,3.57
2017-11-01T11:41:39.613Z,3.77
2017-11-01T11:44:07.041Z,2.33
2017-11-01T11:46:34.463Z,1.60
2017-11-01T11:49:01.858Z,6.73
2017-11-01T11:51:29.279Z,6.10
2017-11-01T11:53:57.462Z,2.53
2017-11-01T11:56:24.874Z,2.83
2017-11-01T11:58:52.287Z,3.63
2017-11-01T12:01:19.693Z,3.80
2017-11-01T12:03:47.111Z,2.07
2017-11-01T12:06:14.523Z,3.23
2017-11-01T12:08:42.704Z,5.27
2017-11-01T12:11:10.881Z,2.67
2017-11-01T12:13:39.054Z,2.43
2017-11-01T12:16:07.230Z,6.30
2017-11-01T12:18:35.405Z,4.10
2017-11-01T12:21:03.590Z,4.30
2017-11-01T12:23:30.995Z,3.43
2017-11-01T12:25:58.414Z,5.80
2017-11-01T12:28:25.828Z,5.33
2017-11-01T12:30:53.246Z,7.10
2017-11-01T12:33:20.658Z,2.80
2017-11-01T12:35:48.841Z,3.00
2017-11-01T12:38:16.245Z,4.03
2017-11-01T12:40:43.671Z,3.27
2017-11-01T12:43:11.078Z,5.83
2017-11-01T12:45:38.490Z,2.90
2017-11-01T12:48:05.905Z,5.00
2017-11-01T12:50:34.106Z,4.43
2017-11-01T12:53:01.506Z,7.20
2017-11-01T12:55:28.925Z,3.17
2017-11-01T12:57:56.333Z,5.50
2017-11-01T13:00:23.741Z,1.50
2017-11-01T13:02:51.163Z,6.07
2017-11-01T13:05:19.334Z,3.30
2017-11-01T13:07:47.523Z,3.73
2017-11-01T13:10:14.937Z,3.23
2017-11-01T13:12:42.358Z,5.50
2017-11-01T13:15:09.770Z,6.33
2017-11-01T13:17:37.962Z,5.30
2017-11-01T13:20:05.367Z,3.37
2017-11-01T13:22:32.794Z,7.17
2017-11-01T13:25:00.198Z,3.70
2017-11-01T13:27:27.610Z,4.37
2017-11-01T13:29:55.023Z,5.63
2017-11-01T13:32:23.198Z,5.00
2017-11-01T13:34:51.449Z,6.27
2017-11-01T13:37:18.867Z,6.97
2017-11-01T13:39:46.349Z,4.20
2017-11-01T13:42:13.760Z,3.43
2017-11-01T13:44:41.178Z,4.10
2017-11-01T13:47:08.592Z,7.27
2017-11-01T13:49:36.008Z,5.70
2017-11-01T13:52:04.177Z,4.67
2017-11-01T13:54:32.362Z,4.73
2017-11-01T13:57:00.552Z,5.60
2017-11-01T13:59:28.043Z,3.07
2017-11-01T14:01:55.459Z,3.23
2017-11-01T14:04:23.634Z,3.50
2017-11-01T14:06:51.043Z,4.83
2017-11-01T14:09:18.456Z,2.73
2017-11-01T14:11:45.862Z,4.27
2017-11-01T14:14:13.287Z,3.47
2017-11-01T14:16:40.691Z,6.70
2017-11-01T14:19:08.120Z,2.50
2017-11-01T14:21:35.518Z,5.30
2017-11-01T14:24:03.697Z,7.77
2017-11-01T14:26:31.891Z,3.00
2017-11-01T14:28:59.290Z,3.20
2017-11-01T14:31:26.712Z,4.47
2017-11-01T14:33:54.118Z,4.47
2017-11-01T14:36:22.302Z,3.83
2017-11-01T14:38:50.472Z,6.20
2017-11-01T14:41:18.659Z,4.23
2017-11-01T14:43:46.865Z,5.83
2017-11-01T14:46:14.274Z,5.70
2017-11-01T14:48:41.682Z,4.73
2017-11-01T14:51:09.106Z,3.40
2017-11-01T14:53:36.513Z,3.90
2017-11-01T14:56:03.930Z,4.37
2017-11-01T14:58:31.342Z,3.73
2017-11-01T15:00:58.751Z,3.20
2017-11-01T15:03:26.160Z,6.03
2017-11-01T15:05:53.567Z,6.40
2017-11-01T15:08:20.987Z,6.70
2017-11-01T15:10:49.165Z,3.70
2017-11-01T15:13:17.338Z,5.93
2017-11-01T15:15:45.523Z,5.83
2017-11-01T15:18:12.946Z,3.83
2017-11-01T15:20:40.361Z,4.00
2017-11-01T15:23:07.766Z,5.80
2017-11-01T15:25:35.181Z,4.33
2017-11-01T15:28:02.589Z,7.60
2017-11-01T15:30:30.774Z,4.70
2017-11-01T15:32:58.180Z,4.50
2017-11-01T15:35:25.585Z,4.10
2017-11-01T15:37:52.996Z,3.90
2017-11-01T15:40:20.410Z,3.50
2017-11-01T15:42:47.822Z,4.03
2017-11-01T15:45:15.234Z,5.80
2017-11-01T15:47:42.648Z,4.63
2017-11-01T15:50:10.834Z,2.97
2017-11-01T15:52:39.186Z,2.60
2017-11-01T15:55:06.598Z,2.93
2017-11-01T15:57:34.010Z,7.53
2017-11-01T16:00:02.208Z,4.03
2017-11-01T16:02:29.614Z,4.13
2017-11-01T16:04:57.036Z,2.50
2017-11-01T16:07:24.438Z,5.13
2017-11-01T16:09:51.863Z,4.93
2017-11-01T16:12:19.278Z,6.20
2017-11-01T16:14:47.462Z,4.60
2017-11-01T16:17:14.874Z,5.67
2017-11-01T16:19:42.297Z,5.13
2017-11-01T16:22:09.702Z,2.60
2017-11-01T16:24:37.873Z,3.53
2017-11-01T16:27:05.285Z,4.37
2017-11-01T16:29:32.701Z,2.93
2017-11-01T16:32:00.881Z,4.07
2017-11-01T16:34:28.294Z,7.07
2017-11-01T16:36:55.713Z,9.07
2017-11-01T16:39:23.129Z,8.80
2017-11-01T16:41:51.316Z,6.57
2017-11-01T16:44:19.499Z,7.53
2017-11-01T16:46:46.905Z,9.30
2017-11-01T16:49:14.317Z,5.03
2017-11-01T16:51:41.732Z,5.00
2017-11-01T16:54:09.143Z,5.87
2017-11-01T16:56:36.581Z,4.23
2017-11-01T16:59:03.994Z,4.80
2017-11-01T17:01:31.395Z,4.20
2017-11-01T17:03:58.801Z,3.63
2017-11-01T17:06:26.209Z,5.97
2017-11-01T17:08:53.626Z,7.20
2017-11-01T17:11:21.027Z,5.50
2017-11-01T17:13:48.437Z,6.63
2017-11-01T17:16:15.852Z,11.40
2017-11-01T17:18:43.271Z,16.30
2017-11-01T17:21:11.444Z,14.83
2017-11-01T17:23:39.626Z,15.70
2017-11-01T17:26:07.034Z,11.00
2017-11-01T17:28:34.449Z,8.80
2017-11-01T17:31:01.854Z,10.77
2017-11-01T17:33:29.266Z,6.57
2017-11-01T17:35:57.782Z,7.90
2017-11-01T17:38:25.193Z,4.27
2017-11-01T17:40:52.603Z,4.70
2017-11-01T17:43:20.024Z,3.80
2017-11-01T17:45:47.421Z,6.97
2017-11-01T17:48:14.841Z,5.50
2017-11-01T17:50:42.243Z,4.50
2017-11-01T17:53:09.653Z,4.90
2017-11-01T17:55:37.066Z,5.03
2017-11-01T17:58:05.272Z,5.77
2017-11-01T18:00:32.666Z,3.40
2017-11-01T18:03:00.074Z,6.27
2017-11-01T18:05:27.478Z,4.27
2017-11-01T18:07:54.877Z,2.57
2017-11-01T18:10:22.279Z,9.77
2017-11-01T18:12:49.694Z,3.40
2017-11-01T18:15:17.094Z,5.10
2017-11-01T18:17:44.506Z,5.10
2017-11-01T18:20:11.913Z,6.57
2017-11-01T18:22:39.465Z,6.57
2017-11-01T18:25:06.865Z,6.97
2017-11-01T18:27:35.046Z,4.30
2017-11-01T18:30:03.219Z,5.33
2017-11-01T18:32:30.629Z,5.57
2017-11-01T18:34:58.029Z,9.00
2017-11-01T18:37:26.202Z,4.97
2017-11-01T18:39:54.385Z,5.60
2017-11-01T18:42:21.786Z,4.50
2017-11-01T18:44:49.203Z,4.93
2017-11-01T18:47:16.610Z,5.93
2017-11-01T18:49:44.019Z,6.73
2017-11-01T18:52:11.438Z,13.93
2017-11-01T18:54:38.841Z,8.07
2017-11-01T18:57:06.257Z,6.93
2017-11-01T18:59:34.426Z,4.70
2017-11-01T19:02:02.589Z,3.70
2017-11-01T19:04:30.006Z,4.90
2017-11-01T19:06:57.419Z,4.27
2017-11-01T19:09:25.602Z,5.03
2017-11-01T19:11:53.001Z,8.07
2017-11-01T19:14:20.418Z,9.63
2017-11-01T19:16:47.832Z,7.50
2017-11-01T19:19:15.238Z,7.80
2017-11-01T19:21:42.642Z,6.30
2017-11-01T19:24:10.817Z,8.30
2017-11-01T19:26:38.221Z,10.07
2017-11-01T19:29:05.634Z,8.90
2017-11-01T19:31:33.045Z,8.70
2017-11-01T19:34:00.461Z,10.57
2017-11-01T19:36:28.630Z,11.03
2017-11-01T19:38:56.821Z,9.70
2017-11-01T19:41:24.998Z,11.87
2017-11-01T19:43:53.165Z,8.47
2017-11-01T19:46:21.352Z,10.73
2017-11-01T19:48:48.762Z,12.93
2017-11-01T19:51:16.186Z,17.43
2017-11-01T19:53:43.590Z,11.57
2017-11-01T19:56:11.005Z,11.53
2017-11-01T19:58:38.421Z,12.60
2017-11-01T20:01:06.606Z,12.10
2017-11-01T20:03:34.930Z,11.30
2017-11-01T20:06:02.342Z,10.73
2017-11-01T20:08:29.752Z,11.73
2017-11-01T20:10:58.661Z,13.67
2017-11-01T20:13:26.882Z,13.63
2017-11-01T20:15:54.285Z,18.90
2017-11-01T20:18:21.706Z,15.00
2017-11-01T20:20:49.118Z,11.10
2017-11-01T20:23:17.293Z,13.07
2017-11-01T20:25:45.469Z,11.70
2017-11-01T20:28:12.883Z,16.20
2017-11-01T20:30:40.300Z,16.53
2017-11-01T20:33:07.734Z,14.63
2017-11-01T20:35:35.914Z,14.50
2017-11-01T20:38:03.315Z,10.30
2017-11-01T20:40:30.738Z,12.33
2017-11-01T20:42:58.152Z,11.23
2017-11-01T20:45:25.563Z,11.23
2017-11-01T20:47:52.964Z,9.97
2017-11-01T20:50:20.375Z,13.67
2017-11-01T20:52:47.799Z,11.33
2017-11-01T20:55:15.973Z,12.07
2017-11-01T20:57:44.154Z,16.17
2017-11-01T21:00:11.585Z,14.30
2017-11-01T21:02:39.745Z,15.87
2017-11-01T21:05:08.669Z,16.30
2017-11-01T21:07:36.085Z,11.23
2017-11-01T21:10:03.507Z,10.60
2017-11-01T21:12:30.919Z,11.60
2017-11-01T21:14:59.117Z,10.63
2017-11-01T21:17:27.281Z,15.20
2017-11-01T21:19:55.457Z,14.67
2017-11-01T21:22:23.634Z,18.87
2017-11-01T21:24:51.053Z,11.50
2017-11-01T21:27:18.460Z,14.30
2017-11-01T21:29:45.869Z,13.10
2017-11-01T21:32:13.269Z,10.80
2017-11-01T21:34:40.681Z,13.40
2017-11-01T21:37:08.098Z,13.10
2017-11-01T21:39:35.508Z,10.70
2017-11-01T21:42:02.910Z,15.30
2017-11-01T21:44:30.338Z,17.07
2017-11-01T21:46:57.749Z,18.50
2017-11-01T21:49:25.161Z,15.40
2017-11-01T21:51:52.578Z,16.57
2017-11-01T21:54:19.989Z,12.23
2017-11-01T21:56:47.406Z,14.43
2017-11-01T21:59:15.577Z,14.93
2017-11-01T22:01:43.760Z,21.90
2017-11-01T22:04:11.946Z,23.27
2017-11-01T22:06:39.354Z,13.87
2017-11-01T22:09:06.761Z,13.27
2017-11-01T22:11:34.174Z,12.57
2017-11-01T22:14:01.626Z,15.17
2017-11-01T22:16:29.033Z,20.30
2017-11-01T22:18:57.130Z,13.93
2017-11-01T22:21:24.547Z,21.67
2017-11-01T22:23:52.734Z,16.50
2017-11-01T22:26:20.141Z,16.03
2017-11-01T22:28:47.562Z,20.63
2017-11-01T22:31:14.966Z,14.80
2017-11-01T22:33:42.384Z,13.50
2017-11-01T22:36:10.565Z,16.93
2017-11-01T22:38:37.979Z,14.83
2017-11-01T22:41:05.390Z,14.80
2017-11-01T22:43:32.813Z,14.87
2017-11-01T22:46:00.218Z,12.30
2017-11-01T22:48:27.637Z,24.57
2017-11-01T22:50:55.045Z,24.73
2017-11-01T22:53:23.234Z,18.47
2017-11-01T22:55:50.642Z,22.63
2017-11-01T22:58:18.067Z,17.97
2017-11-01T23:00:45.470Z,14.20
2017-11-01T23:03:12.892Z,12.77
2017-11-01T23:05:40.302Z,10.30
2017-11-01T23:08:08.478Z,9.93
2017-11-01T23:10:36.649Z,14.80
2017-11-01T23:13:04.838Z,13.60
2017-11-01T23:15:32.248Z,12.03
2017-11-01T23:17:59.654Z,19.27
2017-11-01T23:20:27.065Z,32.00
2017-11-01T23:22:54.481Z,25.93
2017-11-01T23:25:21.885Z,9.37
2017-11-01T23:27:49.299Z,9.67
2017-11-01T23:30:16.705Z,10.70
2017-11-01T23:32:44.886Z,12.67
2017-11-01T23:35:13.073Z,10.83
2017-11-01T23:37:40.470Z,15.47
2017-11-01T23:40:07.887Z,11.50
2017-11-01T23:42:35.302Z,11.63
2017-11-01T23:45:03.483Z,10.03
2017-11-01T23:47:32.402Z,13.13
2017-11-01T23:49:59.811Z,11.33
2017-11-01T23:52:27.236Z,10.67
2017-11-01T23:54:54.642Z,10.27
2017-11-01T23:57:22.053Z,8.20
2017-11-01T23:59:49.464Z,8.10
